createdAt,value
2018-05-31T00:02:05.849Z,23.40
2018-05-31T00:04:39.652Z,23.41
2018-05-31T00:07:13.360Z,23.37
2018-05-31T00:09:46.857Z,23.38
2018-05-31T00:12:20.461Z,23.29
2018-05-31T00:14:54.159Z,23.23
2018-05-31T00:17:27.864Z,23.23
2018-05-31T00:20:01.714Z,23.28
2018-05-31T00:22:35.255Z,23.22
2018-05-31T00:25:08.824Z,23.11
2018-05-31T00:27:42.404Z,23.06
2018-05-31T00:30:16.251Z,23.08
2018-05-31T00:32:50.143Z,23.08
2018-05-31T00:35:23.942Z,23.06
2018-05-31T00:37:57.692Z,23.09
2018-05-31T00:40:31.420Z,23.01
2018-05-31T00:43:05.211Z,22.96
2018-05-31T00:45:39.004Z,22.88
2018-05-31T00:48:12.555Z,22.87
2018-05-31T00:50:46.305Z,22.88
2018-05-31T00:53:19.932Z,22.91
2018-05-31T00:56:05.568Z,22.91
2018-05-31T00:58:39.322Z,22.88
2018-05-31T01:01:12.963Z,22.82
2018-05-31T01:03:46.536Z,22.75
2018-05-31T01:06:20.328Z,22.87
2018-05-31T01:08:53.928Z,22.89
2018-05-31T01:11:27.728Z,22.84
2018-05-31T01:14:01.258Z,22.75
2018-05-31T01:16:34.935Z,22.88
2018-05-31T01:19:08.513Z,22.96
2018-05-31T01:21:42.258Z,22.95
2018-05-31T01:24:15.791Z,22.85
2018-05-31T01:26:49.558Z,22.79
2018-05-31T01:29:23.104Z,22.78
2018-05-31T01:31:56.717Z,22.87
2018-05-31T01:34:30.508Z,22.79
2018-05-31T01:37:04.200Z,22.80
2018-05-31T01:39:37.808Z,22.82
2018-05-31T01:42:11.472Z,22.81
2018-05-31T01:44:45.247Z,22.78
2018-05-31T01:47:19.068Z,22.80
2018-05-31T01:49:52.679Z,22.77
2018-05-31T01:52:26.313Z,22.79
2018-05-31T01:55:00.064Z,22.97
2018-05-31T01:57:33.635Z,22.90
2018-05-31T02:00:07.186Z,23.07
2018-05-31T02:02:40.969Z,25.36
2018-05-31T02:05:14.704Z,25.09
2018-05-31T02:07:48.304Z,25.00
2018-05-31T02:10:21.808Z,25.08
2018-05-31T02:12:55.403Z,25.08
2018-05-31T02:15:28.913Z,24.95
2018-05-31T02:18:02.528Z,23.48
2018-05-31T02:20:36.040Z,23.13
2018-05-31T02:23:09.886Z,23.02
2018-05-31T02:25:43.592Z,22.95
2018-05-31T02:28:17.372Z,22.97
2018-05-31T02:30:50.951Z,23.01
2018-05-31T02:33:24.699Z,22.93
2018-05-31T02:35:58.336Z,22.82
2018-05-31T02:38:32.101Z,22.97
2018-05-31T02:41:05.821Z,22.92
2018-05-31T02:43:39.565Z,22.83
2018-05-31T02:46:13.068Z,22.81
2018-05-31T02:48:46.858Z,22.89
2018-05-31T02:51:20.552Z,22.73
2018-05-31T02:53:54.341Z,22.67
2018-05-31T02:56:28.108Z,22.59
2018-05-31T02:59:01.784Z,22.46
2018-05-31T03:01:35.267Z,22.51
2018-05-31T03:04:08.859Z,22.43
2018-05-31T03:06:42.467Z,22.35
2018-05-31T03:09:16.096Z,22.44
2018-05-31T03:11:49.603Z,22.04
2018-05-31T03:14:23.368Z,22.13
2018-05-31T03:16:56.983Z,22.23
2018-05-31T03:19:30.575Z,22.20
2018-05-31T03:22:04.220Z,22.25
2018-05-31T03:24:38.012Z,22.25
2018-05-31T03:27:15.065Z,22.19
2018-05-31T03:29:48.680Z,22.07
2018-05-31T03:32:22.264Z,22.06
2018-05-31T03:34:55.812Z,22.00
2018-05-31T03:37:29.568Z,22.05
2018-05-31T03:40:03.215Z,22.03
2018-05-31T03:42:36.879Z,22.03
2018-05-31T03:45:10.600Z,21.97
2018-05-31T03:47:44.359Z,21.87
2018-05-31T03:50:17.911Z,21.69
2018-05-31T03:52:51.489Z,21.84
2018-05-31T03:55:25.131Z,21.96
2018-05-31T03:57:58.740Z,21.84
2018-05-31T04:00:32.264Z,21.84
2018-05-31T04:03:05.855Z,21.39
2018-05-31T04:05:39.444Z,21.73
2018-05-31T04:08:13.964Z,21.74
2018-05-31T04:10:47.552Z,21.61
2018-05-31T04:13:21.136Z,21.63
2018-05-31T04:15:54.871Z,21.67
2018-05-31T04:18:28.505Z,21.76
2018-05-31T04:21:02.532Z,21.70
2018-05-31T04:23:36.064Z,21.18
2018-05-31T04:26:09.881Z,21.07
2018-05-31T04:28:43.642Z,21.14
2018-05-31T04:31:17.458Z,21.26
2018-05-31T04:33:51.181Z,21.45
2018-05-31T04:36:24.836Z,21.55
2018-05-31T04:38:58.509Z,21.58
2018-05-31T04:41:32.312Z,21.76
2018-05-31T04:44:05.941Z,21.73
2018-05-31T04:46:39.708Z,22.13
2018-05-31T04:49:13.370Z,22.13
2018-05-31T04:51:47.176Z,22.33
2018-05-31T04:54:20.740Z,22.49
2018-05-31T04:56:54.621Z,22.71
2018-05-31T04:59:28.340Z,22.62
2018-05-31T05:02:02.124Z,22.75
2018-05-31T05:04:35.857Z,22.82
2018-05-31T05:07:09.552Z,22.57
2018-05-31T05:09:43.068Z,22.49
2018-05-31T05:12:16.673Z,22.64
2018-05-31T05:14:50.254Z,22.77
2018-05-31T05:17:24.085Z,22.73
2018-05-31T05:19:57.798Z,22.56
2018-05-31T05:22:31.377Z,22.90
2018-05-31T05:25:05.080Z,23.13
2018-05-31T05:27:38.889Z,22.76
2018-05-31T05:30:12.558Z,23.30
2018-05-31T05:32:46.304Z,22.88
2018-05-31T05:35:20.036Z,23.51
2018-05-31T05:37:53.817Z,23.54
2018-05-31T05:40:27.544Z,23.55
2018-05-31T05:43:01.253Z,23.57
2018-05-31T05:45:34.840Z,23.03
2018-05-31T05:48:08.649Z,23.30
2018-05-31T05:50:42.260Z,23.01
2018-05-31T05:53:16.007Z,23.06
2018-05-31T05:55:49.734Z,23.71
2018-05-31T05:58:23.439Z,23.92
2018-05-31T06:00:57.141Z,23.82
2018-05-31T06:03:30.845Z,24.22
2018-05-31T06:06:04.545Z,24.26
2018-05-31T06:08:38.363Z,24.50
2018-05-31T06:11:12.222Z,24.08
2018-05-31T06:13:45.921Z,24.52
2018-05-31T06:16:19.601Z,24.55
2018-05-31T06:18:53.259Z,25.09
2018-05-31T06:21:26.953Z,24.76
2018-05-31T06:24:00.588Z,24.81
2018-05-31T06:26:34.261Z,25.06
2018-05-31T06:29:08.072Z,25.48
2018-05-31T06:31:41.684Z,26.38
2018-05-31T06:34:15.296Z,26.54
2018-05-31T06:36:49.067Z,26.76
2018-05-31T06:39:22.745Z,27.46
2018-05-31T06:41:56.437Z,28.21
2018-05-31T06:44:30.016Z,28.15
2018-05-31T06:47:03.809Z,27.86
2018-05-31T06:49:37.525Z,28.05
2018-05-31T06:52:11.089Z,28.14
2018-05-31T06:54:44.818Z,28.66
2018-05-31T06:57:18.421Z,27.90
2018-05-31T06:59:52.137Z,27.88
2018-05-31T07:02:25.804Z,27.76
2018-05-31T07:04:59.457Z,27.56
2018-05-31T07:07:33.021Z,27.83
2018-05-31T07:10:06.745Z,27.23
2018-05-31T07:12:40.430Z,27.00
2018-05-31T07:15:14.034Z,26.77
2018-05-31T07:17:47.556Z,27.39
2018-05-31T07:20:21.220Z,28.87
2018-05-31T07:22:55.042Z,28.67
2018-05-31T07:25:28.773Z,28.28
2018-05-31T07:28:02.276Z,28.67
2018-05-31T07:30:35.865Z,28.49
2018-05-31T07:33:09.578Z,28.49
2018-05-31T07:35:43.283Z,28.86
2018-05-31T07:38:16.988Z,30.25
2018-05-31T07:40:50.564Z,28.94
2018-05-31T07:43:24.306Z,28.10
2018-05-31T07:45:57.997Z,26.43
2018-05-31T07:48:31.915Z,26.92
2018-05-31T07:51:05.508Z,27.42
2018-05-31T07:53:39.267Z,27.48
2018-05-31T07:56:12.901Z,25.36
2018-05-31T07:58:46.465Z,25.58
2018-05-31T08:01:20.225Z,24.99
2018-05-31T08:03:53.948Z,25.65
2018-05-31T08:06:27.656Z,25.12
2018-05-31T08:09:01.230Z,25.68
2018-05-31T08:11:34.961Z,25.23
2018-05-31T08:14:08.577Z,25.22
2018-05-31T08:16:42.309Z,24.70
2018-05-31T08:19:16.224Z,25.41
2018-05-31T08:21:49.865Z,24.20
2018-05-31T08:24:23.449Z,24.44
2018-05-31T08:26:57.161Z,24.38
2018-05-31T08:29:30.776Z,24.40
2018-05-31T08:32:04.332Z,25.13
2018-05-31T08:34:38.100Z,24.81
2018-05-31T08:37:11.800Z,24.87
2018-05-31T08:39:45.369Z,25.00
2018-05-31T08:42:19.044Z,24.91
2018-05-31T08:44:52.795Z,24.89
2018-05-31T08:47:27.264Z,24.75
2018-05-31T08:50:00.832Z,25.35
2018-05-31T08:52:34.536Z,25.49
2018-05-31T08:55:08.329Z,25.23
2018-05-31T08:57:41.840Z,25.66
2018-05-31T09:00:15.517Z,25.22
2018-05-31T09:02:49.224Z,25.46
2018-05-31T09:05:22.877Z,26.04
2018-05-31T09:07:56.807Z,25.61
2018-05-31T09:10:30.460Z,26.28
2018-05-31T09:13:04.210Z,25.35
2018-05-31T09:15:38.077Z,26.00
2018-05-31T09:18:11.685Z,25.69
2018-05-31T09:20:45.278Z,25.89
2018-05-31T09:23:18.986Z,26.22
2018-05-31T09:25:52.653Z,26.46
2018-05-31T09:28:26.357Z,27.04
2018-05-31T09:31:00.213Z,27.03
2018-05-31T09:33:33.859Z,27.45
2018-05-31T09:36:07.580Z,27.26
2018-05-31T09:38:41.187Z,27.79
2018-05-31T09:41:14.881Z,28.39
2018-05-31T09:43:48.368Z,27.96
2018-05-31T09:46:22.057Z,28.49
2018-05-31T09:48:55.730Z,27.97
2018-05-31T09:51:29.289Z,27.43
2018-05-31T09:54:02.960Z,27.43
2018-05-31T09:56:36.696Z,29.18
2018-05-31T09:59:10.695Z,30.67
2018-05-31T10:01:44.256Z,31.49
2018-05-31T10:04:17.929Z,32.31
2018-05-31T10:06:51.478Z,32.29
2018-05-31T10:09:25.070Z,34.47
2018-05-31T10:11:58.736Z,30.08
2018-05-31T10:14:32.267Z,29.18
2018-05-31T10:17:05.926Z,29.75
2018-05-31T10:19:39.528Z,28.98
2018-05-31T10:22:13.037Z,28.62
2018-05-31T10:24:46.587Z,29.67
2018-05-31T10:27:20.316Z,29.56
2018-05-31T10:29:54.092Z,28.63
2018-05-31T10:32:27.669Z,29.27
2018-05-31T10:35:01.355Z,29.88
2018-05-31T10:37:35.145Z,29.56
2018-05-31T10:40:08.708Z,28.74
2018-05-31T10:42:42.528Z,27.12
2018-05-31T10:45:16.300Z,27.49
2018-05-31T10:47:49.872Z,27.61
2018-05-31T10:50:23.495Z,27.83
2018-05-31T10:52:57.000Z,27.98
2018-05-31T10:55:30.568Z,30.33
2018-05-31T10:58:04.112Z,31.20
2018-05-31T11:00:37.639Z,32.46
2018-05-31T11:03:11.466Z,34.10
2018-05-31T11:05:45.025Z,33.82
2018-05-31T11:08:18.794Z,35.09
2018-05-31T11:10:52.503Z,33.33
2018-05-31T11:13:26.104Z,33.01
2018-05-31T11:15:59.861Z,33.04
2018-05-31T11:18:33.565Z,32.80
2018-05-31T11:21:07.112Z,35.21
2018-05-31T11:23:40.690Z,35.43
2018-05-31T11:26:14.237Z,37.13
2018-05-31T11:28:47.743Z,34.39
2018-05-31T11:31:21.494Z,33.69
2018-05-31T11:33:55.619Z,34.46
2018-05-31T11:36:29.250Z,35.77
2018-05-31T11:39:02.820Z,35.49
2018-05-31T11:41:36.359Z,34.88
2018-05-31T11:44:09.943Z,33.30
2018-05-31T11:46:43.553Z,34.39
2018-05-31T11:49:17.275Z,34.70
2018-05-31T11:51:51.016Z,33.08
2018-05-31T11:54:24.812Z,31.63
2018-05-31T11:56:58.447Z,30.61
2018-05-31T11:59:31.992Z,30.06
2018-05-31T12:02:05.731Z,28.61
2018-05-31T12:04:39.531Z,29.99
2018-05-31T12:07:13.195Z,30.85
2018-05-31T12:09:46.835Z,29.34
2018-05-31T12:12:20.599Z,28.78
2018-05-31T12:14:54.192Z,28.83
2018-05-31T12:17:27.967Z,29.09
2018-05-31T12:20:01.347Z,29.03
2018-05-31T12:22:35.017Z,28.59
2018-05-31T12:25:08.679Z,29.53
2018-05-31T12:27:42.441Z,29.18
2018-05-31T12:30:15.969Z,28.73
2018-05-31T12:32:49.520Z,28.87
2018-05-31T12:35:23.270Z,29.12
2018-05-31T12:37:56.910Z,28.63
2018-05-31T12:40:30.536Z,28.79
2018-05-31T12:43:04.139Z,29.09
2018-05-31T12:45:37.791Z,28.67
2018-05-31T12:48:11.387Z,28.87
2018-05-31T12:50:44.954Z,28.73
2018-05-31T12:53:18.480Z,29.34
2018-05-31T12:55:52.147Z,29.09
2018-05-31T12:58:25.711Z,28.45
2018-05-31T13:00:59.356Z,29.29
2018-05-31T13:03:32.999Z,28.88
2018-05-31T13:06:06.628Z,29.55
2018-05-31T13:08:40.176Z,29.97
2018-05-31T13:11:13.948Z,29.58
2018-05-31T13:13:47.538Z,28.85
2018-05-31T13:16:21.304Z,29.04
2018-05-31T13:18:55.041Z,28.64
2018-05-31T13:21:28.686Z,28.92
2018-05-31T13:24:02.230Z,29.66
2018-05-31T13:26:35.797Z,29.87
2018-05-31T13:29:09.390Z,29.50
2018-05-31T13:31:42.880Z,30.07
2018-05-31T13:34:16.416Z,29.86
2018-05-31T13:36:50.119Z,29.65
2018-05-31T13:39:23.638Z,29.58
2018-05-31T13:41:57.280Z,29.57
2018-05-31T13:44:31.678Z,29.18
2018-05-31T13:47:05.376Z,29.50
2018-05-31T13:49:38.933Z,29.56
2018-05-31T13:52:12.783Z,29.09
2018-05-31T13:54:46.416Z,28.75
2018-05-31T13:57:20.137Z,29.13
2018-05-31T13:59:53.691Z,28.72
2018-05-31T14:02:27.164Z,29.03
2018-05-31T14:05:00.700Z,29.36
2018-05-31T14:07:34.351Z,29.17
2018-05-31T14:10:07.835Z,29.36
2018-05-31T14:12:41.584Z,29.73
2018-05-31T14:15:15.220Z,29.20
2018-05-31T14:17:48.972Z,29.10
2018-05-31T14:20:22.551Z,29.21
2018-05-31T14:22:56.143Z,29.42
2018-05-31T14:25:29.708Z,29.37
2018-05-31T14:28:03.400Z,29.36
2018-05-31T14:30:36.940Z,30.41
2018-05-31T14:33:10.708Z,31.38
2018-05-31T14:35:44.341Z,32.41
2018-05-31T14:38:18.205Z,31.71
2018-05-31T14:40:52.067Z,31.72
2018-05-31T14:43:25.653Z,31.94
2018-05-31T14:45:59.280Z,32.28
2018-05-31T14:48:32.931Z,32.58
2018-05-31T14:51:06.415Z,31.59
2018-05-31T14:53:40.140Z,32.03
2018-05-31T14:56:13.804Z,31.65
2018-05-31T14:58:47.562Z,31.54
2018-05-31T15:01:21.135Z,32.22
2018-05-31T15:03:54.855Z,31.01
2018-05-31T15:06:28.387Z,31.01
2018-05-31T15:09:02.012Z,31.59
2018-05-31T15:11:35.563Z,31.90
2018-05-31T15:14:09.172Z,32.48
2018-05-31T15:16:42.817Z,32.09
2018-05-31T15:19:16.410Z,30.67
2018-05-31T15:21:50.061Z,31.17
2018-05-31T15:24:23.631Z,31.44
2018-05-31T15:26:57.340Z,31.17
2018-05-31T15:29:30.920Z,30.76
2018-05-31T15:32:04.471Z,30.70
2018-05-31T15:34:38.067Z,31.12
2018-05-31T15:37:11.608Z,30.95
2018-05-31T15:39:45.416Z,30.64
2018-05-31T15:42:18.968Z,30.88
2018-05-31T15:44:52.698Z,30.78
2018-05-31T15:47:26.699Z,30.05
2018-05-31T15:50:00.395Z,30.25
2018-05-31T15:52:33.983Z,30.13
2018-05-31T15:55:07.736Z,29.68
2018-05-31T15:57:41.340Z,29.91
2018-05-31T16:00:15.021Z,31.96
2018-05-31T16:02:48.645Z,29.30
2018-05-31T16:05:22.340Z,28.79
2018-05-31T16:07:55.876Z,28.91
2018-05-31T16:10:29.452Z,29.13
2018-05-31T16:13:03.055Z,28.86
2018-05-31T16:15:36.834Z,29.05
2018-05-31T16:18:10.388Z,28.55
2018-05-31T16:20:44.116Z,28.94
2018-05-31T16:23:17.639Z,28.12
2018-05-31T16:25:51.295Z,27.86
2018-05-31T16:28:24.828Z,27.82
2018-05-31T16:30:58.371Z,27.91
2018-05-31T16:33:32.014Z,27.86
2018-05-31T16:36:05.689Z,27.73
2018-05-31T16:38:39.217Z,27.60
2018-05-31T16:41:12.964Z,27.91
2018-05-31T16:43:46.697Z,27.55
2018-05-31T16:46:20.300Z,27.43
2018-05-31T16:48:53.836Z,27.46
2018-05-31T16:51:27.604Z,27.61
2018-05-31T16:54:01.148Z,27.58
2018-05-31T16:56:34.643Z,27.29
2018-05-31T16:59:08.199Z,27.36
2018-05-31T17:01:41.963Z,27.10
2018-05-31T17:04:15.743Z,27.11
2018-05-31T17:06:49.515Z,27.17
2018-05-31T17:09:23.172Z,27.53
2018-05-31T17:11:56.652Z,27.37
2018-05-31T17:14:30.227Z,27.47
2018-05-31T17:17:03.839Z,27.38
2018-05-31T17:19:37.581Z,27.57
2018-05-31T17:22:11.087Z,27.19
2018-05-31T17:24:44.764Z,26.78
2018-05-31T17:27:18.396Z,26.98
2018-05-31T17:29:52.152Z,26.89
2018-05-31T17:32:25.700Z,26.88
2018-05-31T17:34:59.349Z,26.51
2018-05-31T17:37:32.948Z,26.97
2018-05-31T17:40:06.455Z,26.50
2018-05-31T17:42:40.170Z,26.51
2018-05-31T17:45:13.939Z,26.46
2018-05-31T17:47:47.706Z,26.83
2018-05-31T17:50:21.452Z,26.46
2018-05-31T17:52:54.943Z,26.52
2018-05-31T17:55:28.503Z,26.57
2018-05-31T17:58:02.008Z,26.62
2018-05-31T18:00:35.637Z,26.48
2018-05-31T18:03:09.388Z,26.38
2018-05-31T18:05:43.167Z,26.46
2018-05-31T18:08:16.812Z,26.38
2018-05-31T18:10:50.457Z,26.46
2018-05-31T18:13:24.032Z,26.32
2018-05-31T18:15:57.789Z,26.33
2018-05-31T18:18:31.544Z,26.21
2018-05-31T18:21:05.045Z,26.57
2018-05-31T18:23:38.624Z,26.34
2018-05-31T18:26:12.179Z,25.97
2018-05-31T18:28:45.656Z,26.31
2018-05-31T18:31:19.580Z,26.29
2018-05-31T18:33:53.140Z,26.37
2018-05-31T18:36:26.948Z,26.38
2018-05-31T18:39:00.752Z,26.36
2018-05-31T18:41:34.274Z,26.36
2018-05-31T18:44:07.808Z,26.26
2018-05-31T18:46:41.337Z,26.24
2018-05-31T18:49:15.112Z,25.98
2018-05-31T18:51:48.770Z,26.06
2018-05-31T18:54:22.547Z,25.82
2018-05-31T18:57:13.420Z,25.95
2018-05-31T18:59:47.164Z,25.97
2018-05-31T19:02:20.664Z,25.79
2018-05-31T19:04:54.184Z,25.49
2018-05-31T19:07:27.784Z,25.56
2018-05-31T19:10:01.568Z,25.50
2018-05-31T19:12:41.108Z,25.37
2018-05-31T19:15:21.632Z,25.35
2018-05-31T19:17:48.592Z,25.39
2018-05-31T19:20:22.224Z,25.21
2018-05-31T19:22:55.844Z,25.02
2018-05-31T19:25:29.456Z,24.99
2018-05-31T19:28:02.976Z,24.96
2018-05-31T19:30:42.108Z,24.96
2018-05-31T19:33:15.924Z,24.66
2018-05-31T19:35:55.048Z,24.76
2018-05-31T19:38:28.701Z,24.58
2018-05-31T19:41:02.380Z,24.48
2018-05-31T19:43:41.668Z,24.42
2018-05-31T19:46:38.715Z,24.34
2018-05-31T19:49:12.339Z,24.24
2018-05-31T19:51:51.563Z,23.99
2018-05-31T19:54:25.230Z,23.89
2018-05-31T20:00:03.728Z,23.76
2018-05-31T20:02:43.093Z,23.77
2018-05-31T20:05:16.887Z,23.73
2018-05-31T20:07:50.559Z,23.67
2018-05-31T20:10:24.083Z,23.61
2018-05-31T20:12:57.844Z,23.78
2018-05-31T20:15:31.372Z,23.72
2018-05-31T20:18:04.997Z,23.70
2018-05-31T20:20:38.532Z,23.62
2018-05-31T20:23:12.083Z,23.58
2018-05-31T20:25:45.591Z,23.63
2018-05-31T20:28:19.113Z,23.62
2018-05-31T20:30:52.748Z,23.71
2018-05-31T20:33:26.272Z,23.54
2018-05-31T20:35:59.804Z,23.55
2018-05-31T20:38:33.347Z,23.65
2018-05-31T20:41:06.836Z,23.56
2018-05-31T20:43:40.359Z,23.57
2018-05-31T20:46:13.944Z,23.51
2018-05-31T20:48:47.516Z,23.35
2018-05-31T20:51:21.299Z,23.35
2018-05-31T20:53:54.804Z,23.32
2018-05-31T20:56:28.328Z,23.19
2018-05-31T20:59:01.811Z,23.16
2018-05-31T21:01:35.566Z,23.04
2018-05-31T21:04:09.107Z,22.89
2018-05-31T21:06:43.026Z,22.73
2018-05-31T21:09:16.820Z,22.72
2018-05-31T21:11:50.329Z,22.68
2018-05-31T21:14:24.035Z,22.57
2018-05-31T21:16:57.818Z,22.56
2018-05-31T21:19:31.332Z,22.56
2018-05-31T21:22:04.998Z,22.63
2018-05-31T21:24:38.742Z,22.72
2018-05-31T21:27:12.297Z,22.67
2018-05-31T21:29:45.792Z,22.67
2018-05-31T21:32:19.364Z,22.70
2018-05-31T21:34:53.003Z,22.66
2018-05-31T21:37:26.564Z,22.67
2018-05-31T21:40:00.181Z,22.70
2018-05-31T21:42:33.819Z,22.70
2018-05-31T21:45:07.420Z,22.60
2018-05-31T21:47:41.003Z,22.63
2018-05-31T21:50:14.571Z,22.73
2018-05-31T21:52:48.115Z,22.68
2018-05-31T21:55:21.620Z,22.60
2018-05-31T21:57:55.267Z,22.58
2018-05-31T22:03:25.684Z,22.51
2018-05-31T22:05:59.287Z,22.47
2018-05-31T22:08:32.861Z,22.51
2018-05-31T22:11:06.415Z,22.47
2018-05-31T22:13:39.943Z,22.40
2018-05-31T22:16:13.539Z,22.58
2018-05-31T22:18:47.099Z,22.49
2018-05-31T22:21:20.891Z,22.39
2018-05-31T22:23:54.471Z,22.59
2018-05-31T22:26:28.101Z,22.61
2018-05-31T22:29:01.680Z,22.72
2018-05-31T22:31:35.304Z,22.76
2018-05-31T22:34:08.860Z,22.78
2018-05-31T22:36:42.432Z,22.68
2018-05-31T22:39:15.932Z,22.59
2018-05-31T22:41:49.488Z,22.45
2018-05-31T22:44:23.104Z,22.47
2018-05-31T22:46:56.862Z,22.44
2018-05-31T22:49:30.444Z,22.30
2018-05-31T22:52:04.163Z,22.28
2018-05-31T22:54:37.692Z,22.20
2018-05-31T22:57:11.419Z,22.20
2018-05-31T22:59:45.032Z,22.24
2018-05-31T23:02:18.820Z,22.21
2018-05-31T23:04:52.584Z,22.05
2018-05-31T23:07:26.256Z,21.97
2018-05-31T23:09:59.788Z,21.85
2018-05-31T23:12:33.477Z,21.83
2018-05-31T23:15:07.148Z,21.89
2018-05-31T23:17:40.719Z,21.85
2018-05-31T23:20:14.352Z,21.90
2018-05-31T23:22:47.872Z,21.96
2018-05-31T23:25:21.537Z,21.89
2018-05-31T23:27:55.319Z,21.77
2018-05-31T23:30:29.080Z,21.73
2018-05-31T23:33:02.681Z,21.74
2018-05-31T23:35:36.285Z,21.59
2018-05-31T23:38:09.735Z,21.60
2018-05-31T23:40:43.323Z,21.57
2018-05-31T23:43:16.956Z,21.48
2018-05-31T23:45:50.525Z,21.58
2018-05-31T23:48:24.173Z,21.54
2018-05-31T23:50:57.719Z,21.41
2018-05-31T23:53:31.471Z,21.35
2018-05-31T23:56:04.976Z,21.38
2018-05-31T23:58:38.584Z,21.44
